createdAt,value
2023-02-21T00:02:43.562Z,16.85
2023-02-21T00:05:28.797Z,17.05
2023-02-21T00:08:16.175Z,16.42
2023-02-21T00:11:01.273Z,15.98
2023-02-21T00:13:47.250Z,16.88
2023-02-21T00:16:35.039Z,16.77
2023-02-21T00:19:20.576Z,16.77
2023-02-21T00:24:52.847Z,16.63
2023-02-21T00:27:38.277Z,16.63
2023-02-21T00:33:09.664Z,15.15
2023-02-21T00:35:55.997Z,15.98
2023-02-21T00:38:41.456Z,16.17
2023-02-21T00:44:14.172Z,16.70
2023-02-21T00:46:59.760Z,18.08
2023-02-21T00:52:31.237Z,16.73
2023-02-21T00:55:16.465Z,17.77
2023-02-21T00:58:03.329Z,17.77
2023-02-21T01:00:48.412Z,17.27
2023-02-21T01:03:33.593Z,17.40
2023-02-21T01:06:18.873Z,16.73
2023-02-21T01:09:06.049Z,17.77
2023-02-21T01:11:51.820Z,17.13
2023-02-21T01:14:38.746Z,17.80
2023-02-21T01:17:24.433Z,17.65
2023-02-21T01:20:10.427Z,17.85
2023-02-21T01:22:57.799Z,18.00
2023-02-21T01:25:43.151Z,18.27
2023-02-21T01:31:15.531Z,17.00
2023-02-21T01:34:01.036Z,17.20
2023-02-21T01:39:32.894Z,16.52
2023-02-21T01:42:19.334Z,18.00
2023-02-21T01:45:07.900Z,17.30
2023-02-21T01:47:54.541Z,18.20
2023-02-21T01:50:43.799Z,18.35
2023-02-21T01:53:33.716Z,17.90
2023-02-21T01:56:19.905Z,17.77
2023-02-21T01:59:09.016Z,17.67
2023-02-21T02:02:03.422Z,17.50
2023-02-21T02:04:52.577Z,18.70
2023-02-21T02:07:39.156Z,18.15
2023-02-21T02:10:28.191Z,17.58
2023-02-21T02:13:12.830Z,19.67
2023-02-21T02:15:54.266Z,20.02
2023-02-21T02:18:46.952Z,18.25
2023-02-21T02:21:55.596Z,18.45
2023-02-21T02:24:44.717Z,17.80
2023-02-21T02:27:39.358Z,18.65
2023-02-21T02:30:41.689Z,18.63
2023-02-21T02:33:43.171Z,19.00
2023-02-21T02:36:16.290Z,18.73
2023-02-21T02:38:54.362Z,19.48
2023-02-21T02:41:32.702Z,20.27
2023-02-21T02:44:07.378Z,21.35
2023-02-21T02:46:39.467Z,21.27
2023-02-21T02:49:11.828Z,20.85
2023-02-21T02:51:41.290Z,20.80
2023-02-21T02:54:11.221Z,20.63
2023-02-21T02:56:39.230Z,21.85
2023-02-21T02:59:10.127Z,21.20
2023-02-21T03:01:58.230Z,21.58
2023-02-21T03:04:49.957Z,21.10
2023-02-21T03:07:27.313Z,21.55
2023-02-21T03:10:10.983Z,20.58
2023-02-21T03:12:45.116Z,19.95
2023-02-21T03:15:19.920Z,21.27
2023-02-21T03:17:52.733Z,22.00
2023-02-21T03:20:22.136Z,21.75
2023-02-21T03:22:53.402Z,20.48
2023-02-21T03:25:23.826Z,21.60
2023-02-21T03:27:56.348Z,20.90
2023-02-21T03:30:27.456Z,20.10
2023-02-21T03:32:57.017Z,20.40
2023-02-21T03:35:30.363Z,19.80
2023-02-21T03:38:01.252Z,20.10
2023-02-21T03:40:31.692Z,20.48
2023-02-21T03:43:03.430Z,19.48
2023-02-21T03:45:36.052Z,18.50
2023-02-21T03:48:12.482Z,19.27
2023-02-21T03:50:42.303Z,18.33
2023-02-21T03:53:12.413Z,18.25
2023-02-21T03:55:44.554Z,19.13
2023-02-21T03:58:19.349Z,19.23
2023-02-21T04:00:47.787Z,17.83
2023-02-21T04:03:18.741Z,17.38
2023-02-21T04:05:56.191Z,17.48
2023-02-21T04:08:25.838Z,17.35
2023-02-21T04:10:53.794Z,17.65
2023-02-21T04:13:26.137Z,18.33
2023-02-21T04:15:56.012Z,17.90
2023-02-21T04:18:24.835Z,18.65
2023-02-21T04:20:54.793Z,18.17
2023-02-21T04:23:24.803Z,17.98
2023-02-21T04:25:53.314Z,18.35
2023-02-21T04:28:28.296Z,18.50
2023-02-21T04:30:56.618Z,17.35
2023-02-21T04:33:25.709Z,19.02
2023-02-21T04:35:53.596Z,17.98
2023-02-21T04:38:37.652Z,17.65
2023-02-21T04:41:06.362Z,17.15
2023-02-21T04:43:34.417Z,18.95
2023-02-21T04:46:02.419Z,18.30
2023-02-21T04:48:30.396Z,17.35
2023-02-21T04:51:13.525Z,18.45
2023-02-21T04:53:44.306Z,17.70
2023-02-21T04:56:12.699Z,17.88
2023-02-21T04:58:45.361Z,17.60
2023-02-21T05:01:14.542Z,18.30
2023-02-21T05:03:42.671Z,16.65
2023-02-21T05:06:10.836Z,18.73
2023-02-21T05:08:38.703Z,17.25
2023-02-21T05:11:08.768Z,17.33
2023-02-21T05:13:36.637Z,17.23
2023-02-21T05:16:04.539Z,17.42
2023-02-21T05:18:34.466Z,17.90
2023-02-21T05:21:03.434Z,16.75
2023-02-21T05:23:38.407Z,17.02
2023-02-21T05:26:09.971Z,16.75
2023-02-21T05:28:38.916Z,15.90
2023-02-21T05:31:07.787Z,16.80
2023-02-21T05:33:35.765Z,15.60
2023-02-21T05:36:03.965Z,16.10
2023-02-21T05:38:31.827Z,15.85
2023-02-21T05:40:59.853Z,15.93
2023-02-21T05:43:33.686Z,15.38
2023-02-21T05:46:02.013Z,15.40
2023-02-21T05:48:30.054Z,15.60
2023-02-21T05:50:57.985Z,14.77
2023-02-21T05:53:25.905Z,15.60
2023-02-21T05:55:53.787Z,16.70
2023-02-21T05:58:21.604Z,16.15
2023-02-21T06:00:52.597Z,15.70
2023-02-21T06:03:20.877Z,16.33
2023-02-21T06:05:48.729Z,14.68
2023-02-21T06:08:16.562Z,15.23
2023-02-21T06:10:44.374Z,15.00
2023-02-21T06:13:12.232Z,15.35
2023-02-21T06:15:40.153Z,15.13
2023-02-21T06:18:09.975Z,15.43
2023-02-21T06:20:37.949Z,14.50
2023-02-21T06:23:05.881Z,14.85
2023-02-21T06:25:33.787Z,14.45
2023-02-21T06:28:01.944Z,14.23
2023-02-21T06:30:29.915Z,16.58
2023-02-21T06:32:57.798Z,15.68
2023-02-21T06:35:27.111Z,16.40
2023-02-21T06:37:55.065Z,16.15
2023-02-21T06:40:22.941Z,16.48
2023-02-21T06:42:50.909Z,16.80
2023-02-21T06:45:19.017Z,16.25
2023-02-21T06:47:46.969Z,15.80
2023-02-21T06:50:15.390Z,16.65
2023-02-21T06:52:44.682Z,16.55
2023-02-21T06:55:12.539Z,16.83
2023-02-21T06:57:40.646Z,17.05
2023-02-21T07:00:09.821Z,17.08
2023-02-21T07:02:38.756Z,16.30
2023-02-21T07:05:07.829Z,15.85
2023-02-21T07:07:35.706Z,15.77
2023-02-21T07:10:06.056Z,15.23
2023-02-21T07:12:34.508Z,14.82
2023-02-21T07:15:02.349Z,15.30
2023-02-21T07:17:30.389Z,15.20
2023-02-21T07:19:58.358Z,15.63
2023-02-21T07:22:26.634Z,15.07
2023-02-21T07:24:55.097Z,15.27
2023-02-21T07:27:24.832Z,14.68
2023-02-21T07:29:52.790Z,15.15
2023-02-21T07:32:21.929Z,14.98
2023-02-21T07:34:50.336Z,15.23
2023-02-21T07:37:18.308Z,15.35
2023-02-21T07:39:46.273Z,15.52
2023-02-21T07:42:14.549Z,14.88
2023-02-21T07:44:48.089Z,15.05
2023-02-21T07:47:16.170Z,14.90
2023-02-21T07:49:44.043Z,15.18
2023-02-21T07:52:12.103Z,15.55
2023-02-21T07:54:40.090Z,15.52
2023-02-21T07:57:08.071Z,15.73
2023-02-21T07:59:35.913Z,15.65
2023-02-21T08:02:05.669Z,13.40
2023-02-21T08:04:33.757Z,15.55
2023-02-21T08:07:02.666Z,15.73
2023-02-21T08:09:30.555Z,14.98
2023-02-21T08:11:58.379Z,15.25
2023-02-21T08:14:26.294Z,15.35
2023-02-21T08:16:54.246Z,15.07
2023-02-21T08:19:23.924Z,14.75
2023-02-21T08:21:52.046Z,14.85
2023-02-21T08:24:20.624Z,14.95
2023-02-21T08:26:48.692Z,15.55
2023-02-21T08:29:18.204Z,15.07
2023-02-21T08:31:46.458Z,14.38
2023-02-21T08:34:15.183Z,15.05
2023-02-21T08:36:45.020Z,14.13
2023-02-21T08:39:12.964Z,14.68
2023-02-21T08:41:43.309Z,15.52
2023-02-21T08:44:12.345Z,14.40
2023-02-21T08:46:40.786Z,14.48
2023-02-21T08:49:09.622Z,14.13
2023-02-21T08:51:37.865Z,13.52
2023-02-21T08:54:08.066Z,14.13
2023-02-21T08:56:35.934Z,15.00
2023-02-21T08:59:05.845Z,14.98
2023-02-21T09:01:35.429Z,16.45
2023-02-21T09:04:05.245Z,15.27
2023-02-21T09:06:33.474Z,13.85
2023-02-21T09:09:01.793Z,14.45
2023-02-21T09:11:31.088Z,15.57
2023-02-21T09:13:59.017Z,15.85
2023-02-21T09:16:26.957Z,15.02
2023-02-21T09:18:56.982Z,15.73
2023-02-21T09:21:24.973Z,15.00
2023-02-21T09:23:54.920Z,16.02
2023-02-21T09:26:25.059Z,15.27
2023-02-21T09:28:54.340Z,16.98
2023-02-21T09:31:22.704Z,16.85
2023-02-21T09:33:50.686Z,16.67
2023-02-21T09:36:23.569Z,16.35
2023-02-21T09:38:52.286Z,17.42
2023-02-21T09:41:21.864Z,17.95
2023-02-21T09:43:52.591Z,18.48
2023-02-21T09:46:31.156Z,18.02
2023-02-21T09:48:59.960Z,18.83
2023-02-21T09:51:28.104Z,19.25
2023-02-21T09:53:59.574Z,16.77
2023-02-21T09:56:31.000Z,17.33
2023-02-21T09:58:59.912Z,19.08
2023-02-21T10:01:45.063Z,18.98
2023-02-21T10:04:25.872Z,18.90
2023-02-21T10:06:59.806Z,18.73
2023-02-21T10:09:39.580Z,18.38
2023-02-21T10:12:19.103Z,19.27
2023-02-21T10:15:03.617Z,17.95
2023-02-21T10:17:37.457Z,20.73
2023-02-21T10:20:12.654Z,19.20
2023-02-21T10:22:46.332Z,19.58
2023-02-21T10:25:24.070Z,19.17
2023-02-21T10:27:54.329Z,20.33
2023-02-21T10:30:29.248Z,21.25
2023-02-21T10:32:58.851Z,20.20
2023-02-21T10:35:27.221Z,19.63
2023-02-21T10:37:57.960Z,19.58
2023-02-21T10:40:34.643Z,20.05
2023-02-21T10:43:08.508Z,22.73
2023-02-21T10:45:41.447Z,21.70
2023-02-21T10:48:12.175Z,19.85
2023-02-21T10:50:50.169Z,20.63
2023-02-21T10:53:27.771Z,22.10
2023-02-21T10:56:23.816Z,22.20
2023-02-21T10:58:55.393Z,21.20
2023-02-21T11:01:31.794Z,20.80
2023-02-21T11:04:04.129Z,19.95
2023-02-21T11:06:36.954Z,19.63
2023-02-21T11:09:31.146Z,19.98
2023-02-21T11:12:05.096Z,19.13
2023-02-21T11:14:34.449Z,20.10
2023-02-21T11:17:16.864Z,20.30
2023-02-21T11:19:49.939Z,18.90
2023-02-21T11:22:21.722Z,19.48
2023-02-21T11:25:00.889Z,20.40
2023-02-21T11:27:32.987Z,20.13
2023-02-21T11:30:03.762Z,19.02
2023-02-21T11:32:36.026Z,19.63
2023-02-21T11:35:10.159Z,19.17
2023-02-21T11:37:51.064Z,19.38
2023-02-21T11:40:29.393Z,19.20
2023-02-21T11:43:22.249Z,19.52
2023-02-21T11:46:03.119Z,19.25
2023-02-21T11:48:36.806Z,18.20
2023-02-21T11:51:15.063Z,18.75
2023-02-21T11:53:44.971Z,16.85
2023-02-21T11:56:21.211Z,17.35
2023-02-21T11:58:59.746Z,16.90
2023-02-21T12:01:32.385Z,17.00
2023-02-21T12:04:11.849Z,16.02
2023-02-21T12:06:49.043Z,17.58
2023-02-21T12:09:26.804Z,17.90
2023-02-21T12:12:07.947Z,18.88
2023-02-21T12:14:48.821Z,18.33
2023-02-21T12:17:47.013Z,18.60
2023-02-21T12:20:34.177Z,17.63
2023-02-21T12:23:16.732Z,17.70
2023-02-21T12:26:28.626Z,18.45
2023-02-21T12:29:21.897Z,19.88
2023-02-21T12:32:03.597Z,18.17
2023-02-21T12:34:47.743Z,18.10
2023-02-21T12:37:24.744Z,18.67
2023-02-21T12:40:13.113Z,17.73
2023-02-21T12:42:52.470Z,18.50
2023-02-21T12:45:38.461Z,19.00
2023-02-21T12:48:13.596Z,19.00
2023-02-21T12:50:44.871Z,18.00
2023-02-21T12:53:17.457Z,17.90
2023-02-21T12:55:52.729Z,17.73
2023-02-21T13:00:57.058Z,17.42
2023-02-21T13:03:37.413Z,18.23
2023-02-21T13:06:11.276Z,17.55
2023-02-21T13:08:52.071Z,19.25
2023-02-21T13:11:28.442Z,19.02
2023-02-21T13:13:57.443Z,18.73
2023-02-21T13:16:26.867Z,18.98
2023-02-21T13:19:00.297Z,18.88
2023-02-21T13:21:45.624Z,18.35
2023-02-21T13:24:42.902Z,17.40
2023-02-21T13:27:40.794Z,17.38
2023-02-21T13:30:15.920Z,17.27
2023-02-21T13:32:53.909Z,17.15
2023-02-21T13:35:27.976Z,17.58
2023-02-21T13:37:56.921Z,17.33
2023-02-21T13:40:32.821Z,17.13
2023-02-21T13:43:11.932Z,16.30
2023-02-21T13:45:40.407Z,15.57
2023-02-21T13:48:29.355Z,16.80
2023-02-21T13:50:59.037Z,16.38
2023-02-21T13:53:33.810Z,15.77
2023-02-21T13:56:19.135Z,16.17
2023-02-21T13:58:49.703Z,15.82
2023-02-21T14:01:26.794Z,16.92
2023-02-21T14:03:58.865Z,16.75
2023-02-21T14:06:34.769Z,16.92
2023-02-21T14:09:14.376Z,16.15
2023-02-21T14:11:48.130Z,16.55
2023-02-21T14:14:27.216Z,17.23
2023-02-21T14:17:02.267Z,15.73
2023-02-21T14:19:36.802Z,16.50
2023-02-21T14:22:11.636Z,16.83
2023-02-21T14:24:43.363Z,16.85
2023-02-21T14:27:34.956Z,16.80
2023-02-21T14:30:33.955Z,16.58
2023-02-21T14:33:19.234Z,17.67
2023-02-21T14:38:22.466Z,17.63
2023-02-21T14:41:04.959Z,18.40
2023-02-21T14:43:56.126Z,17.73
2023-02-21T14:46:48.105Z,17.40
2023-02-21T14:49:55.634Z,18.83
2023-02-21T14:52:38.868Z,17.13
2023-02-21T14:55:27.193Z,18.40
2023-02-21T14:58:30.678Z,19.17
2023-02-21T15:01:09.446Z,18.50
2023-02-21T15:03:45.561Z,19.30
2023-02-21T15:06:21.089Z,19.90
2023-02-21T15:08:51.085Z,19.13
2023-02-21T15:11:26.308Z,19.08
2023-02-21T15:16:45.472Z,19.33
2023-02-21T15:19:25.185Z,19.40
2023-02-21T15:22:17.448Z,18.88
2023-02-21T15:25:12.338Z,20.00
2023-02-21T15:30:24.901Z,18.52
2023-02-21T15:32:59.926Z,20.05
2023-02-21T15:35:33.595Z,18.58
2023-02-21T15:38:04.574Z,18.90
2023-02-21T15:40:32.783Z,19.65
2023-02-21T15:43:02.167Z,19.45
2023-02-21T15:45:34.483Z,19.13
2023-02-21T15:48:03.413Z,19.23
2023-02-21T15:50:36.988Z,19.42
2023-02-21T15:53:17.086Z,19.90
2023-02-21T15:55:46.007Z,20.58
2023-02-21T15:58:18.012Z,21.27
2023-02-21T16:00:47.395Z,20.13
2023-02-21T16:03:50.430Z,19.77
2023-02-21T16:06:23.694Z,20.17
2023-02-21T16:08:58.947Z,20.02
2023-02-21T16:11:39.662Z,20.10
2023-02-21T16:14:08.517Z,19.90
2023-02-21T16:16:37.014Z,20.70
2023-02-21T16:19:05.076Z,19.95
2023-02-21T16:21:35.313Z,20.77
2023-02-21T16:24:17.047Z,21.27
2023-02-21T16:27:03.185Z,21.92
2023-02-21T16:29:31.071Z,22.45
2023-02-21T16:31:59.175Z,23.05
2023-02-21T16:34:29.874Z,22.98
2023-02-21T16:37:05.650Z,23.58
2023-02-21T16:42:01.774Z,23.40
2023-02-21T16:44:30.054Z,23.52
2023-02-21T16:46:57.969Z,25.15
2023-02-21T16:49:26.064Z,27.27
2023-02-21T16:51:54.445Z,26.98
2023-02-21T16:54:23.784Z,29.35
2023-02-21T16:56:54.452Z,28.25
2023-02-21T16:59:25.547Z,27.67
2023-02-21T17:01:53.582Z,27.92
2023-02-21T17:04:25.159Z,27.35
2023-02-21T17:06:55.822Z,27.30
2023-02-21T17:09:27.684Z,27.27
2023-02-21T17:11:56.146Z,27.88
2023-02-21T17:14:24.042Z,28.73
2023-02-21T17:16:51.906Z,26.63
2023-02-21T17:19:21.706Z,27.15
2023-02-21T17:21:50.711Z,28.05
2023-02-21T17:24:20.028Z,28.42
2023-02-21T17:26:49.299Z,27.83
2023-02-21T17:29:17.213Z,27.55
2023-02-21T17:31:45.181Z,28.42
2023-02-21T17:34:14.020Z,28.60
2023-02-21T17:36:42.056Z,26.05
2023-02-21T17:39:10.871Z,27.10
2023-02-21T17:41:45.790Z,24.83
2023-02-21T17:44:15.959Z,26.52
2023-02-21T17:46:48.394Z,27.52
2023-02-21T17:49:18.693Z,28.63
2023-02-21T17:51:47.648Z,27.42
2023-02-21T17:54:16.366Z,27.52
2023-02-21T17:56:44.402Z,25.42
2023-02-21T17:59:13.010Z,24.35
2023-02-21T18:01:42.974Z,25.88
2023-02-21T18:04:13.607Z,26.15
2023-02-21T18:06:42.037Z,26.45
2023-02-21T18:09:11.016Z,26.50
2023-02-21T18:11:39.055Z,27.17
2023-02-21T18:14:07.002Z,26.88
2023-02-21T18:16:34.950Z,27.73
2023-02-21T18:19:04.266Z,26.88
2023-02-21T18:21:32.186Z,26.58
2023-02-21T18:24:00.346Z,27.38
2023-02-21T18:26:28.280Z,26.98
2023-02-21T18:28:56.253Z,27.55
2023-02-21T18:31:24.357Z,27.35
2023-02-21T18:33:52.322Z,27.60
2023-02-21T18:36:21.555Z,26.75
2023-02-21T18:38:49.598Z,27.35
2023-02-21T18:41:20.311Z,27.50
2023-02-21T18:43:48.278Z,27.35
2023-02-21T18:46:19.141Z,26.98
2023-02-21T18:48:48.858Z,26.52
2023-02-21T18:51:20.054Z,28.35
2023-02-21T18:53:49.973Z,26.92
2023-02-21T18:56:20.806Z,27.15
2023-02-21T18:58:49.681Z,26.30
2023-02-21T19:01:20.766Z,27.60
2023-02-21T19:03:51.793Z,26.55
2023-02-21T19:06:21.161Z,26.67
2023-02-21T19:08:51.037Z,28.20
2023-02-21T19:11:19.241Z,28.00
2023-02-21T19:13:50.312Z,28.08
2023-02-21T19:16:20.615Z,28.92
2023-02-21T19:18:51.390Z,27.13
2023-02-21T19:21:19.333Z,25.58
2023-02-21T19:23:47.680Z,25.83
2023-02-21T19:26:17.096Z,26.08
2023-02-21T19:28:45.598Z,26.30
2023-02-21T19:31:15.131Z,28.20
2023-02-21T19:33:44.822Z,28.65
2023-02-21T19:36:13.363Z,27.70
2023-02-21T19:38:41.410Z,29.58
2023-02-21T19:41:09.944Z,28.02
2023-02-21T19:43:39.225Z,26.20
2023-02-21T19:46:07.394Z,26.40
2023-02-21T19:48:35.346Z,26.38
2023-02-21T19:51:03.409Z,26.67
2023-02-21T19:53:31.424Z,29.10
2023-02-21T19:55:59.367Z,29.40
2023-02-21T19:58:27.212Z,27.83
2023-02-21T20:00:56.649Z,28.17
2023-02-21T20:03:24.594Z,26.20
2023-02-21T20:05:52.630Z,26.35
2023-02-21T20:08:20.709Z,26.58
2023-02-21T20:10:49.092Z,27.58
2023-02-21T20:13:17.083Z,25.55
2023-02-21T20:15:45.452Z,26.65
2023-02-21T20:18:15.609Z,27.13
2023-02-21T20:20:43.822Z,27.75
2023-02-21T20:23:13.956Z,26.45
2023-02-21T20:25:41.850Z,24.73
2023-02-21T20:28:09.753Z,23.55
2023-02-21T20:30:38.467Z,23.00
2023-02-21T20:33:06.842Z,24.50
2023-02-21T20:35:36.431Z,23.63
2023-02-21T20:38:05.825Z,22.92
2023-02-21T20:40:33.830Z,36.65
2023-02-21T20:43:02.514Z,25.15
2023-02-21T20:45:30.532Z,23.60
2023-02-21T20:47:58.546Z,22.70
2023-02-21T20:50:26.531Z,21.30
2023-02-21T20:52:55.800Z,22.13
2023-02-21T20:55:25.157Z,21.85
2023-02-21T20:57:53.099Z,21.75
2023-02-21T21:00:23.553Z,21.40
2023-02-21T21:02:51.778Z,22.35
2023-02-21T21:05:21.133Z,20.75
2023-02-21T21:07:49.466Z,21.33
2023-02-21T21:10:19.306Z,20.52
2023-02-21T21:12:49.426Z,21.08
2023-02-21T21:15:18.062Z,21.45
2023-02-21T21:17:46.589Z,21.55
2023-02-21T21:20:17.763Z,19.88
2023-02-21T21:22:46.451Z,21.92
2023-02-21T21:25:14.988Z,21.85
2023-02-21T21:27:45.202Z,20.77
2023-02-21T21:30:18.115Z,21.10
2023-02-21T21:32:46.883Z,18.48
2023-02-21T21:35:17.661Z,19.45
2023-02-21T21:37:45.479Z,19.30
2023-02-21T21:40:16.857Z,17.85
2023-02-21T21:42:48.982Z,18.00
2023-02-21T21:45:23.908Z,17.50
2023-02-21T21:47:53.853Z,16.77
2023-02-21T21:50:22.816Z,15.50
2023-02-21T21:52:52.688Z,18.17
2023-02-21T21:55:24.349Z,18.10
2023-02-21T21:57:54.910Z,18.45
2023-02-21T22:00:26.014Z,16.88
2023-02-21T22:02:57.419Z,19.80
2023-02-21T22:05:26.081Z,19.70
2023-02-21T22:07:54.240Z,22.55
2023-02-21T22:10:23.962Z,23.25
2023-02-21T22:12:55.983Z,24.20
2023-02-21T22:15:26.725Z,22.05
2023-02-21T22:17:55.270Z,21.05
2023-02-21T22:20:31.259Z,22.95
2023-02-21T22:23:00.075Z,23.25
2023-02-21T22:25:30.369Z,23.25
2023-02-21T22:28:03.831Z,24.60
2023-02-21T22:30:31.874Z,25.83
2023-02-21T22:32:59.902Z,25.88
2023-02-21T22:35:28.569Z,26.65
2023-02-21T22:38:01.934Z,25.13
2023-02-21T22:40:31.097Z,24.73
2023-02-21T22:43:02.902Z,25.40
2023-02-21T22:45:33.152Z,25.95
2023-02-21T22:48:03.321Z,26.35
2023-02-21T22:50:36.929Z,25.77
2023-02-21T22:53:08.243Z,27.55
2023-02-21T22:55:38.118Z,26.48
2023-02-21T22:58:09.976Z,28.90
2023-02-21T23:00:39.228Z,28.17
2023-02-21T23:03:13.074Z,29.33
2023-02-21T23:05:43.564Z,29.02
2023-02-21T23:08:12.873Z,30.85
2023-02-21T23:10:42.458Z,29.67
2023-02-21T23:13:14.175Z,30.02
2023-02-21T23:15:43.180Z,32.05
2023-02-21T23:18:13.051Z,31.27
2023-02-21T23:20:44.736Z,30.25
2023-02-21T23:23:14.058Z,28.77
2023-02-21T23:25:41.897Z,28.17
2023-02-21T23:28:14.422Z,26.92
2023-02-21T23:30:43.887Z,26.63
2023-02-21T23:33:15.664Z,27.02
2023-02-21T23:35:44.324Z,26.35
2023-02-21T23:38:15.532Z,25.25
2023-02-21T23:40:44.716Z,26.30
2023-02-21T23:43:19.182Z,27.23
2023-02-21T23:45:48.243Z,26.42
2023-02-21T23:48:16.491Z,25.27
2023-02-21T23:50:46.491Z,24.08
2023-02-21T23:53:16.125Z,25.55
2023-02-21T23:55:46.787Z,26.23
2023-02-21T23:58:19.712Z,26.70
